Huvudsida
METAR-TAF:

METAR-TAF

Flygplatser :

Crotone, Italien

latitud: 39-00N, longitud: 017-04E, höjd: 155 m

Aktuellt väderrapport

Denna rapport gjordes för 2 timmar och 18 minuter sedan, klockan 18:50 UTC
Vind 1 kt varierande vindriktning
Temperatur 8°C
Fuktighet 81%
Tryck 1009 hPa
Sikt 10 km eller mer
Inga moln under 1 500 m eller inga cumulonimbus

METAR: LIBC 141850Z VRB01KT CAVOK 08/05 Q1009

Tid: 22:08 (21:08 UTC)

Väderprognos

Denna rapport gjordes för 4 timmar och 8 minuter sedan, klockan 17:00 UTC
Prognos gäller från 14 kl. 18 UTC till 15 kl. 18 UTC
Vind 8 kt från nord
Sikt 10 km eller mer
Inga moln under 1 500 m eller inga cumulonimbus
Blir
från 15 kl. 12 UTC till 15 kl. 14 UTC
Vind 12 kt från sydväst

TAF: LIBC 141700Z 1418/1518 35008KT CAVOK BECMG 1512/1514 22012KT

Aktuella väderrapporter och prognoser från 4000 flygplatser (METAR- och TAF-rapporter).

De tillgängliga stationerna syns som gula och röda prickar på kartan.

För musen över prickarna för att se namnen på stationerna.

Klicka sedan för att få väderrapporter och prognoser.

För att ändra kartan: Klicka på de gröna knapparna med ett svart kors på för att zooma in; den gröna knappen med ett streck på för att zooma ut; eller på de gröna pilarna för angränsande kartor.


METAR-TAF: